Time;durP1;ratioP1;P1;durP2;ratioP2;P2;SDS_P1;SDS_P2;PMS_P1;PMS_P2;Temp;Humidity;BMP_temperature;BMP_pressure;BME280_temperature;BME280_humidity;BME280_pressure;Samples;Min_cycle;Max_cycle;Signal;HPM_P1;HPM_P2
2023/01/06 00:00:29;;;;;;;6.27;1.87;;;;;;;;;;5045607;28;20047;-77
2023/01/06 00:02:55;;;;;;;5.67;1.53;;;;;;;;;;5038499;28;20034;-78
2023/01/06 00:05:23;;;;;;;6.37;2.37;;;;;;;;;;5039008;28;20061;-75
2023/01/06 00:07:50;;;;;;;9.57;2.33;;;;;;;;;;5027593;28;20033;-78
2023/01/06 00:10:16;;;;;;;12.00;2.37;;;;;;;;;;5045208;28;20043;-76
2023/01/06 00:12:44;;;;;;;10.07;2.90;;;;;;;;;;5028398;28;20033;-76
2023/01/06 00:15:10;;;;;;;10.00;2.30;;;;;;;;;;5029443;28;20347;-77
2023/01/06 00:17:36;;;;;;;8.53;2.77;;;;;;;;;;5044183;28;20033;-76
2023/01/06 00:20:03;;;;;;;12.93;2.40;;;;;;;;;;5032313;28;20044;-76
2023/01/06 00:22:29;;;;;;;10.27;2.87;;;;;;;;;;5040903;28;20128;-77
2023/01/06 00:24:55;;;;;;;8.17;2.80;;;;;;;;;;5044537;28;20120;-77
2023/01/06 00:27:24;;;;;;;8.20;3.53;;;;;;;;;;5023490;28;20034;-77
2023/01/06 00:29:50;;;;;;;9.40;4.73;;;;;;;;;;5023844;28;20025;-76
2023/01/06 00:32:16;;;;;;;8.40;4.10;;;;;;;;;;5029079;28;20116;-77
2023/01/06 00:34:42;;;;;;;8.17;4.50;;;;;;;;;;5040834;28;20044;-77
2023/01/06 00:37:08;;;;;;;6.87;4.13;;;;;;;;;;5046461;28;20029;-77
2023/01/06 00:39:34;;;;;;;7.97;3.53;;;;;;;;;;5029003;28;20378;-78
2023/01/06 00:42:03;;;;;;;7.70;2.80;;;;;;;;;;5028675;28;20125;-77
2023/01/06 00:44:32;;;;;;;8.17;2.50;;;;;;;;;;5028458;28;20035;-77
2023/01/06 00:46:58;;;;;;;5.63;2.63;;;;;;;;;;5029240;28;20164;-78
2023/01/06 00:49:26;;;;;;;4.37;2.73;;;;;;;;;;5022122;28;20030;-78
2023/01/06 00:51:53;;;;;;;7.40;1.90;;;;;;;;;;5024514;28;20150;-77
2023/01/06 00:54:21;;;;;;;3.57;1.87;;;;;;;;;;5024799;28;20037;-78
2023/01/06 00:56:49;;;;;;;3.43;1.43;;;;;;;;;;5045344;28;20025;-76
2023/01/06 00:59:16;;;;;;;3.63;1.27;;;;;;;;;;5039495;28;20037;-77
2023/01/06 01:01:43;;;;;;;6.17;1.33;;;;;;;;;;5028493;28;20053;-77
2023/01/06 01:04:09;;;;;;;7.07;1.20;;;;;;;;;;5028428;28;20040;-76
2023/01/06 01:06:35;;;;;;;5.23;1.47;;;;;;;;;;5024740;28;20033;-77
2023/01/06 01:09:05;;;;;;;5.30;1.60;;;;;;;;;;5024205;28;20044;-78
2023/01/06 01:14:17;;;;;;;4.70;1.30;;;;;;;;;;5030910;28;20504;-78
2023/01/06 01:16:46;;;;;;;8.13;2.23;;;;;;;;;;5029748;28;20053;-77
2023/01/06 01:19:12;;;;;;;6.57;2.23;;;;;;;;;;5028670;28;20108;-77
2023/01/06 01:21:38;;;;;;;11.30;2.57;;;;;;;;;;5039382;28;20021;-78
2023/01/06 01:24:04;;;;;;;5.00;2.07;;;;;;;;;;5028236;28;20079;-77
2023/01/06 01:26:30;;;;;;;3.77;2.10;;;;;;;;;;5023280;28;20041;-77
2023/01/06 01:28:56;;;;;;;5.67;1.30;;;;;;;;;;5023081;28;20040;-78
2023/01/06 01:31:22;;;;;;;5.80;1.60;;;;;;;;;;5035046;28;20087;-76
2023/01/06 01:33:49;;;;;;;9.43;1.70;;;;;;;;;;5044083;28;20037;-77
2023/01/06 01:36:16;;;;;;;5.63;1.60;;;;;;;;;;5043681;28;20144;-79
2023/01/06 01:38:44;;;;;;;5.43;1.50;;;;;;;;;;5027769;28;20063;-77
2023/01/06 01:41:13;;;;;;;6.23;1.53;;;;;;;;;;5028724;28;20457;-78
2023/01/06 01:43:43;;;;;;;2.60;1.20;;;;;;;;;;5039217;28;20034;-77
2023/01/06 01:46:10;;;;;;;5.67;1.30;;;;;;;;;;5028267;28;20025;-77
2023/01/06 01:48:37;;;;;;;4.23;1.40;;;;;;;;;;5028009;28;20037;-78
2023/01/06 01:51:04;;;;;;;3.53;1.20;;;;;;;;;;5038114;28;20029;-78
2023/01/06 01:53:35;;;;;;;8.17;1.87;;;;;;;;;;5043949;28;20075;-77
2023/01/06 01:56:04;;;;;;;8.10;1.77;;;;;;;;;;5028743;28;20033;-76
2023/01/06 01:58:33;;;;;;;5.10;1.93;;;;;;;;;;5043436;28;20037;-78
2023/01/06 02:00:59;;;;;;;5.70;1.40;;;;;;;;;;5042570;28;20037;-77
2023/01/06 02:03:26;;;;;;;6.07;1.43;;;;;;;;;;5024266;28;20029;-77
2023/01/06 02:05:53;;;;;;;3.30;1.13;;;;;;;;;;5043114;28;20030;-77
2023/01/06 02:08:37;;;;;;;8.80;1.60;;;;;;;;;;5021305;28;20757;-78
2023/01/06 02:11:03;;;;;;;7.70;1.47;;;;;;;;;;5038053;28;20472;-76
2023/01/06 02:13:30;;;;;;;6.10;1.80;;;;;;;;;;5039717;28;20057;-77
2023/01/06 02:16:02;;;;;;;4.27;1.50;;;;;;;;;;5023118;28;20040;-77
2023/01/06 02:18:51;;;;;;;4.63;2.10;;;;;;;;;;5023568;28;20465;-76
2023/01/06 02:21:36;;;;;;;10.30;1.50;;;;;;;;;;5012750;28;20040;-76
2023/01/06 02:24:21;;;;;;;3.80;1.40;;;;;;;;;;5040821;28;20037;-77
2023/01/06 02:26:47;;;;;;;2.97;1.30;;;;;;;;;;5044052;28;20071;-77
2023/01/06 02:29:25;;;;;;;6.30;1.60;;;;;;;;;;5044741;28;20060;-77
2023/01/06 02:31:57;;;;;;;5.97;1.40;;;;;;;;;;5044700;28;20442;-76
2023/01/06 02:34:23;;;;;;;4.75;1.50;;;;;;;;;;5025294;28;20128;-78
2023/01/06 02:36:55;;;;;;;10.83;1.67;;;;;;;;;;5031889;28;20109;-77
2023/01/06 02:39:40;;;;;;;3.28;1.10;;;;;;;;;;5031743;28;20056;-76
2023/01/06 02:42:18;;;;;;;6.77;1.70;;;;;;;;;;5045064;28;20137;-77
2023/01/06 02:44:44;;;;;;;7.57;1.30;;;;;;;;;;5047510;28;20029;-78
2023/01/06 02:47:10;;;;;;;3.67;1.23;;;;;;;;;;5047605;28;20052;-78
2023/01/06 02:49:39;;;;;;;3.47;0.73;;;;;;;;;;5034875;28;20033;-77
2023/01/06 02:52:12;;;;;;;5.70;1.33;;;;;;;;;;5047556;28;20048;-77
2023/01/06 02:54:57;;;;;;;7.27;1.07;;;;;;;;;;5027434;28;20025;-77
2023/01/06 02:57:27;;;;;;;7.03;1.27;;;;;;;;;;5041560;28;20053;-77
2023/01/06 03:00:05;;;;;;;5.67;1.20;;;;;;;;;;5035262;28;20081;-77
2023/01/06 03:02:33;;;;;;;7.53;1.27;;;;;;;;;;5049955;28;20061;-77
2023/01/06 03:04:59;;;;;;;6.30;1.60;;;;;;;;;;5046337;28;20041;-78
2023/01/06 03:07:29;;;;;;;6.10;1.23;;;;;;;;;;5027709;28;20118;-77
2023/01/06 03:09:55;;;;;;;3.70;1.10;;;;;;;;;;5046815;28;20057;-78
2023/01/06 03:12:31;;;;;;;8.20;1.50;;;;;;;;;;5048770;28;20043;-77
2023/01/06 03:14:57;;;;;;;5.43;1.20;;;;;;;;;;5048156;28;20022;-78
2023/01/06 03:17:24;;;;;;;6.53;1.07;;;;;;;;;;5025130;28;20037;-75
2023/01/06 03:19:50;;;;;;;4.10;1.37;;;;;;;;;;5049668;28;20039;-77
2023/01/06 03:22:16;;;;;;;5.67;1.00;;;;;;;;;;5025826;28;20470;-77
2023/01/06 03:24:43;;;;;;;8.27;1.50;;;;;;;;;;5030588;28;20029;-78
2023/01/06 03:27:09;;;;;;;10.37;1.90;;;;;;;;;;5030807;28;20030;-78
2023/01/06 03:29:36;;;;;;;5.23;0.80;;;;;;;;;;5046410;28;20048;-77
2023/01/06 03:32:05;;;;;;;4.80;1.10;;;;;;;;;;5024367;28;20037;-77
2023/01/06 03:34:51;;;;;;;3.40;0.90;;;;;;;;;;5046169;28;21609;-77
2023/01/06 03:37:40;;;;;;;2.57;0.70;;;;;;;;;;5029659;28;20045;-78
2023/01/06 03:40:06;;;;;;;7.33;1.20;;;;;;;;;;5024859;28;20069;-77
2023/01/06 03:45:35;;;;;;;4.87;1.03;;;;;;;;;;5029446;28;20053;-76
2023/01/06 03:48:04;;;;;;;5.33;0.63;;;;;;;;;;5023728;28;20033;-77
2023/01/06 03:50:35;;;;;;;6.17;0.90;;;;;;;;;;5025222;28;20496;-77
2023/01/06 03:53:21;;;;;;;2.63;0.70;;;;;;;;;;5040139;28;20061;-76
2023/01/06 03:55:51;;;;;;;4.33;0.80;;;;;;;;;;5029582;28;20057;-78
2023/01/06 03:58:17;;;;;;;3.73;0.80;;;;;;;;;;5028461;28;20043;-78
2023/01/06 04:00:43;;;;;;;8.07;0.83;;;;;;;;;;5038346;28;20087;-76
2023/01/06 04:03:14;;;;;;;3.07;1.10;;;;;;;;;;5045126;28;20037;-78
2023/01/06 04:05:43;;;;;;;5.77;1.40;;;;;;;;;;5025419;28;20025;-75
2023/01/06 04:08:09;;;;;;;9.77;1.23;;;;;;;;;;5044450;28;20025;-78
2023/01/06 04:10:35;;;;;;;6.70;1.60;;;;;;;;;;5024140;28;20373;-77
2023/01/06 04:13:05;;;;;;;2.20;0.80;;;;;;;;;;5044010;28;20042;-78
2023/01/06 04:15:34;;;;;;;3.90;0.87;;;;;;;;;;5044957;28;20041;-76
2023/01/06 04:18:00;;;;;;;4.90;0.67;;;;;;;;;;5039854;28;20469;-78
2023/01/06 04:20:32;;;;;;;5.43;0.80;;;;;;;;;;5044146;28;20075;-78
2023/01/06 04:22:58;;;;;;;3.45;0.95;;;;;;;;;;5045107;28;20029;-77
2023/01/06 04:25:25;;;;;;;5.40;0.90;;;;;;;;;;5037700;28;20030;-77
2023/01/06 04:27:51;;;;;;;4.77;0.83;;;;;;;;;;5037568;28;20025;-77
2023/01/06 04:30:19;;;;;;;3.83;0.83;;;;;;;;;;5044388;28;20026;-76
2023/01/06 04:32:45;;;;;;;7.87;1.00;;;;;;;;;;5045076;28;20792;-79
2023/01/06 04:35:11;;;;;;;2.80;0.60;;;;;;;;;;5024953;28;20363;-79
2023/01/06 04:37:39;;;;;;;2.17;0.60;;;;;;;;;;5028571;28;20041;-77
2023/01/06 04:40:06;;;;;;;2.33;0.60;;;10.70;99.90;;;;;;5029332;28;20022;-76
2023/01/06 04:43:03;;;;;;;3.90;0.97;;;10.60;99.90;;;;;;5046235;28;20033;-77
2023/01/06 04:45:18;;;;;;;3.83;0.97;;;10.60;99.90;;;;;;5029603;28;20100;-77
2023/01/06 04:47:43;;;;;;;4.97;0.70;;;10.50;99.90;;;;;;5024162;28;20120;-78
2023/01/06 04:50:13;;;;;;;6.23;0.70;;;10.40;99.90;;;;;;5028065;28;20021;-78
2023/01/06 04:52:38;;;;;;;3.47;1.00;;;10.40;99.90;;;;;;5028506;28;20025;-77
2023/01/06 04:55:04;;;;;;;5.87;1.03;;;10.40;99.90;;;;;;5023473;28;20039;-78
2023/01/06 04:57:30;;;;;;;3.43;1.10;;;10.50;99.90;;;;;;5029413;28;20029;-79
2023/01/06 04:59:55;;;;;;;2.43;0.90;;;10.40;99.90;;;;;;5044105;28;20103;-77
2023/01/06 05:02:21;;;;;;;5.30;1.60;;;10.40;99.90;;;;;;5031879;28;20465;-78
2023/01/06 05:04:48;;;;;;;3.47;0.70;;;10.40;99.90;;;;;;5027099;28;20113;-78
2023/01/06 05:07:14;;;;;;;3.50;0.50;;;10.30;99.90;;;;;;5044760;28;20061;-77
2023/01/06 05:09:40;;;;;;;4.37;0.70;;;10.30;99.90;;;;;;5023249;28;20339;-76
2023/01/06 05:12:05;;;;;;;3.90;0.90;;;10.30;99.90;;;;;;5029024;28;20850;-77
2023/01/06 05:14:31;;;;;;;4.50;0.73;;;10.40;99.90;;;;;;5037937;28;20072;-76
2023/01/06 05:16:57;;;;;;;3.27;0.80;;;10.40;99.90;;;;;;5019598;28;20041;-78
2023/01/06 05:19:22;;;;;;;2.73;0.77;;;10.40;99.90;;;;;;5036065;28;20030;-78
2023/01/06 05:21:48;;;;;;;3.70;0.40;;;10.50;99.90;;;;;;5043634;28;20041;-77
2023/01/06 05:24:16;;;;;;;5.13;0.70;;;10.60;99.90;;;;;;5024373;28;20029;-77
2023/01/06 05:26:41;;;;;;;4.07;1.03;;;10.60;99.90;;;;;;5022850;28;20081;-78
2023/01/06 05:29:11;;;;;;;3.73;0.70;;;10.50;99.90;;;;;;5027714;28;20095;-77
2023/01/06 05:31:37;;;;;;;1.20;0.57;;;10.60;99.90;;;;;;5018865;28;20048;-78
2023/01/06 05:34:04;;;;;;;6.67;0.90;;;10.60;99.90;;;;;;5023755;28;21520;-78
2023/01/06 05:36:30;;;;;;;5.80;0.73;;;10.50;99.90;;;;;;5026948;28;20042;-78
2023/01/06 05:38:56;;;;;;;3.20;0.60;;;10.60;99.90;;;;;;5026999;28;20080;-76
2023/01/06 05:41:21;;;;;;;3.40;0.53;;;10.70;99.90;;;;;;5044321;28;20038;-75
2023/01/06 05:43:47;;;;;;;4.37;0.80;;;10.70;99.90;;;;;;5023846;28;20055;-75
2023/01/06 05:46:15;;;;;;;3.07;0.60;;;10.70;99.90;;;;;;5027287;28;20147;-77
2023/01/06 05:48:41;;;;;;;3.93;0.77;;;;;;;;;;5023701;28;20041;-76
2023/01/06 05:51:08;;;;;;;4.80;0.60;;;;;;;;;;5043620;28;21650;-75
2023/01/06 05:53:35;;;;;;;1.93;0.70;;;;;;;;;;5036074;28;20037;-76
2023/01/06 05:56:05;;;;;;;4.13;0.70;;;;;;;;;;5043503;28;20382;-77
2023/01/06 05:58:34;;;;;;;2.20;0.70;;;;;;;;;;5043443;28;20045;-77
2023/01/06 06:01:04;;;;;;;1.77;0.90;;;;;;;;;;5036947;28;20021;-77
2023/01/06 06:03:30;;;;;;;5.33;0.80;;;;;;;;;;5043120;28;20069;-76
2023/01/06 06:06:01;;;;;;;2.17;0.50;;;;;;;;;;5023764;28;20432;-77
2023/01/06 06:08:31;;;;;;;1.43;0.40;;;;;;;;;;5027797;28;20034;-75
2023/01/06 06:11:04;;;;;;;3.30;0.60;;;;;;;;;;5040007;28;20120;-75
2023/01/06 06:13:33;;;;;;;8.97;0.90;;;;;;;;;;5047059;28;20030;-76
2023/01/06 06:16:08;;;;;;;2.20;0.67;;;;;;;;;;5030518;28;20072;-76
2023/01/06 06:18:39;;;;;;;1.77;0.50;;;;;;;;;;5045788;28;20040;-77
2023/01/06 06:21:05;;;;;;;2.47;0.60;;;;;;;;;;5045222;28;20120;-75
2023/01/06 06:23:33;;;;;;;1.90;0.30;;;;;;;;;;5046419;28;20129;-76
2023/01/06 06:26:02;;;;;;;2.20;0.43;;;;;;;;;;5024609;28;20034;-77
2023/01/06 06:28:32;;;;;;;2.50;0.43;;;;;;;;;;5029856;28;20092;-77
2023/01/06 06:31:08;;;;;;;1.57;0.50;;;;;;;;;;5045579;28;20450;-75
2023/01/06 06:33:34;;;;;;;1.37;0.40;;;;;;;;;;5030170;28;20044;-76
2023/01/06 06:36:05;;;;;;;2.40;0.40;;;;;;;;;;5025824;28;20554;-75
2023/01/06 06:38:31;;;;;;;0.90;0.40;;;;;;;;;;5024869;28;20088;-77
2023/01/06 06:40:57;;;;;;;2.63;0.73;;;;;;;;;;5031021;28;20441;-77
2023/01/06 06:43:23;;;;;;;6.00;0.80;;;;;;;;;;5046749;28;20113;-75
2023/01/06 06:45:49;;;;;;;3.97;0.70;;;;;;;;;;5030447;28;20041;-75
2023/01/06 06:48:18;;;;;;;3.07;1.00;;;;;;;;;;5046796;28;20044;-77
2023/01/06 06:50:44;;;;;;;2.10;0.50;;;;;;;;;;5040054;28;20041;-77
2023/01/06 06:53:10;;;;;;;3.77;0.60;;;;;;;;;;5041713;28;20044;-77
2023/01/06 06:55:36;;;;;;;2.67;0.60;;;;;;;;;;5025645;28;20053;-76
2023/01/06 06:58:04;;;;;;;2.00;0.47;;;;;;;;;;5045749;28;20056;-77
2023/01/06 07:00:30;;;;;;;3.57;0.70;;;;;;;;;;5028290;28;20385;-77
2023/01/06 07:02:58;;;;;;;0.70;0.37;;;;;;;;;;5037440;28;20040;-75
2023/01/06 07:05:24;;;;;;;5.37;0.40;;;;;;;;;;5029307;28;20033;-77
2023/01/06 07:07:50;;;;;;;2.50;0.50;;;;;;;;;;5045122;28;20037;-76
2023/01/06 07:10:16;;;;;;;4.43;0.50;;;;;;;;;;5027194;28;20041;-77
2023/01/06 07:12:42;;;;;;;1.57;0.50;;;;;;;;;;5037812;28;20039;-77
2023/01/06 07:15:09;;;;;;;4.67;0.80;;;;;;;;;;5048062;28;20446;-76
2023/01/06 07:17:35;;;;;;;3.00;0.47;;;;;;;;;;5029834;28;20037;-77
2023/01/06 07:20:01;;;;;;;6.33;0.67;;;;;;;;;;5039347;28;20036;-75
2023/01/06 07:22:27;;;;;;;1.23;0.50;;;;;;;;;;5044593;28;20034;-76
2023/01/06 07:24:53;;;;;;;0.60;0.40;;;;;;;;;;5023962;28;20029;-76
2023/01/06 07:27:21;;;;;;;1.77;0.40;;;;;;;;;;5023770;28;20021;-77
2023/01/06 07:29:47;;;;;;;1.03;0.33;;;;;;;;;;5021963;28;20029;-75
2023/01/06 07:32:13;;;;;;;0.97;0.50;;;;;;;;;;5044849;28;20033;-75
2023/01/06 07:34:41;;;;;;;1.03;0.40;;;;;;;;;;5046178;28;20041;-76
2023/01/06 07:37:07;;;;;;;1.57;0.93;;;;;;;;;;5039494;28;20032;-77
2023/01/06 07:39:33;;;;;;;3.43;0.97;;;;;;;;;;5032637;28;20967;-77
2023/01/06 07:42:02;;;;;;;2.20;0.40;;;;;;;;;;5030280;28;20021;-75
2023/01/06 07:44:30;;;;;;;1.33;0.40;;;;;;;;;;5031378;28;20033;-76
2023/01/06 07:46:58;;;;;;;0.67;0.23;;;;;;;;;;5041731;28;20025;-77
2023/01/06 07:49:24;;;;;;;2.63;0.37;;;;;;;;;;5025616;28;20132;-77
2023/01/06 07:51:52;;;;;;;1.90;0.63;;;;;;;;;;5033241;28;20125;-75
2023/01/06 07:54:21;;;;;;;0.70;0.30;;;;;;;;;;5039947;28;20114;-75
2023/01/06 07:56:47;;;;;;;0.67;0.30;;;;;;;;;;5029703;28;20033;-76
2023/01/06 07:59:13;;;;;;;3.70;0.83;;;;;;;;;;5029698;28;20034;-77
2023/01/06 08:01:39;;;;;;;1.30;0.63;;;;;;;;;;5038746;28;20049;-77
2023/01/06 08:04:05;;;;;;;2.33;0.47;;;;;;;;;;5024364;28;20615;-76
2023/01/06 08:06:31;;;;;;;1.83;0.70;;;;;;;;;;5028922;28;20038;-76
2023/01/06 08:08:57;;;;;;;0.60;0.30;;;;;;;;;;5021726;28;20092;-75
2023/01/06 08:11:23;;;;;;;2.20;0.40;;;;;;;;;;5038661;28;20347;-77
2023/01/06 08:13:49;;;;;;;1.83;0.40;;;;;;;;;;5044348;28;20030;-77
2023/01/06 08:16:15;;;;;;;2.50;0.73;;;;;;;;;;5024196;28;20049;-76
2023/01/06 08:18:41;;;;;;;1.63;0.60;;;;;;;;;;5023540;28;20472;-76
2023/01/06 08:21:10;;;;;;;3.40;1.00;;;;;;;;;;5020985;28;20084;-77
2023/01/06 08:23:36;;;;;;;1.27;0.50;;;;;;;;;;5028297;28;20072;-77
2023/01/06 08:26:05;;;;;;;1.83;0.60;;;;;;;;;;5044113;28;20052;-76
2023/01/06 08:28:31;;;;;;;0.77;0.40;;;;;;;;;;5022908;28;20065;-77
2023/01/06 08:30:57;;;;;;;1.37;0.40;;;;;;;;;;5043260;28;20036;-76
2023/01/06 08:33:24;;;;;;;3.73;0.60;;;;;;;;;;5023519;28;20559;-77
2023/01/06 08:35:51;;;;;;;3.17;0.70;;;;;;;;;;5023787;28;20047;-78
2023/01/06 08:38:19;;;;;;;2.03;0.40;;;;;;;;;;5027918;28;20037;-76
2023/01/06 08:40:45;;;;;;;0.70;0.30;;;;;;;;;;5044348;28;20025;-76
2023/01/06 08:43:11;;;;;;;2.60;0.50;;;;;;;;;;5020113;28;20060;-75
2023/01/06 08:45:40;;;;;;;2.60;0.60;;;;;;;;;;5044406;28;20434;-76
2023/01/06 08:48:06;;;;;;;1.67;0.40;;;;;;;;;;5027715;28;20069;-75
2023/01/06 08:50:34;;;;;;;1.70;0.47;;;;;;;;;;5021236;28;20037;-76
2023/01/06 08:53:03;;;;;;;0.60;0.40;;;;;;;;;;5037575;28;20052;-76
2023/01/06 08:55:29;;;;;;;1.70;0.50;;;;;;;;;;5028376;28;20056;-76
2023/01/06 08:57:56;;;;;;;0.83;0.47;;;;;;;;;;5037570;28;20080;-76
2023/01/06 09:00:22;;;;;;;1.97;0.50;;;;;;;;;;5036152;28;20029;-77
2023/01/06 09:02:51;;;;;;;1.80;0.47;;;;;;;;;;5037842;28;20064;-77
2023/01/06 09:05:17;;;;;;;1.17;0.43;;;;;;;;;;5043241;28;20022;-77
2023/01/06 09:07:43;;;;;;;1.90;0.37;;;;;;;;;;5040330;28;20084;-76
2023/01/06 09:10:09;;;;;;;2.27;0.33;;;;;;;;;;5036219;28;20052;-76
2023/01/06 09:12:35;;;;;;;0.63;0.30;;;;;;;;;;5045169;28;20031;-77
2023/01/06 09:15:03;;;;;;;0.90;0.37;;;;;;;;;;5043776;28;20091;-76
2023/01/06 09:17:29;;;;;;;0.87;0.40;;;;;;;;;;5021333;28;20068;-77
2023/01/06 09:19:55;;;;;;;0.70;0.40;;;;;;;;;;5028382;28;20419;-77
2023/01/06 09:22:21;;;;;;;0.90;0.20;;;;;;;;;;5035182;28;20039;-77
2023/01/06 09:24:47;;;;;;;1.07;0.20;;;;;;;;;;5044763;28;20057;-77
2023/01/06 09:27:14;;;;;;;0.40;0.30;;;;;;;;;;5043421;28;20382;-77
2023/01/06 09:29:42;;;;;;;0.40;0.40;;;;;;;;;;5046537;28;20802;-77
2023/01/06 09:32:11;;;;;;;0.37;0.17;;;;;;;;;;5026815;28;20134;-77
2023/01/06 09:34:39;;;;;;;1.17;0.33;;;;;;;;;;5027565;28;20030;-76
2023/01/06 09:37:05;;;;;;;0.60;0.27;;;;;;;;;;5027291;28;20095;-76
2023/01/06 09:39:35;;;;;;;0.53;0.20;;;;;;;;;;5027513;28;20029;-77
2023/01/06 09:42:20;;;;;;;1.27;0.20;;;;;;;;;;5042878;28;20025;-76
2023/01/06 09:44:55;;;;;;;0.90;0.20;;;;;;;;;;5023256;28;20029;-77
2023/01/06 09:47:23;;;;;;;0.20;0.20;;;;;;;;;;5031277;28;20033;-75
2023/01/06 09:49:54;;;;;;;0.87;0.33;;;;;;;;;;5024371;28;20040;-77
2023/01/06 09:52:23;;;;;;;1.33;0.20;;;;;;;;;;5042217;28;20049;-77
2023/01/06 09:54:59;;;;;;;1.50;0.20;;;;;;;;;;5031599;28;20033;-76
2023/01/06 09:57:32;;;;;;;1.47;0.87;;;;;;;;;;5041354;28;20033;-75
2023/01/06 10:00:00;;;;;;;3.70;0.33;;;;;;;;;;5032581;28;20559;-76
2023/01/06 10:02:31;;;;;;;0.43;0.20;;;;;;;;;;5026170;28;20239;-76
2023/01/06 10:04:57;;;;;;;0.30;0.23;;;;;;;;;;5046510;28;20040;-75
2023/01/06 10:07:43;;;;;;;0.50;0.20;;;;;;;;;;5030628;28;20017;-76
2023/01/06 10:10:16;;;;;;;0.50;0.20;;;;;;;;;;5038637;28;20080;-76
2023/01/06 10:12:42;;;;;;;0.50;0.20;;;;;;;;;;5040254;28;20608;-75
2023/01/06 10:15:28;;;;;;;0.20;0.10;;;;;;;;;;5046037;28;20064;-78
2023/01/06 10:18:06;;;;;;;1.00;0.30;;;;;;;;;;5023873;28;20048;-76
2023/01/06 10:20:39;;;;;;;0.50;0.27;;;;;;;;;;5023973;28;20029;-77
2023/01/06 10:23:05;;;;;;;4.73;0.20;;;;;;;;;;5030538;28;20132;-77
2023/01/06 10:25:37;;;;;;;0.63;0.10;;;;;;;;;;5030554;28;20124;-76
2023/01/06 10:28:03;;;;;;;0.93;0.15;;;;;;;;;;5030973;28;20108;-76
2023/01/06 10:30:33;;;;;;;0.40;0.20;;;;;;;;;;5039842;28;20121;-77
2023/01/06 10:33:01;;;;;;;0.53;0.20;;;;;;;;;;5026280;28;20120;-75
2023/01/06 10:35:28;;;;;;;1.23;0.40;;;;;;;;;;5030838;28;20083;-78
2023/01/06 10:37:55;;;;;;;0.57;0.20;;;;;;;;;;5026968;28;20030;-76
2023/01/06 10:40:26;;;;;;;0.17;0.10;;;;;;;;;;5046199;28;20060;-76
2023/01/06 10:43:02;;;;;;;0.97;0.20;;;;;;;;;;5045490;28;20480;-76
2023/01/06 10:45:37;;;;;;;0.30;0.10;;;;;;;;;;5030139;28;20076;-77
2023/01/06 10:48:04;;;;;;;4.27;0.90;;;;;;;;;;5046806;28;20095;-77
2023/01/06 10:50:30;;;;;;;0.17;0.17;;;;;;;;;;5047347;28;20446;-77
2023/01/06 10:52:56;;;;;;;0.30;0.20;;;;;;;;;;5031596;28;20317;-77
2023/01/06 10:55:34;;;;;;;0.67;0.30;;;;;;;;;;5030592;28;20029;-77
2023/01/06 10:58:14;;;;;;;0.93;0.43;;;;;;;;;;5030979;28;20095;-76
2023/01/06 11:00:53;;;;;;;0.60;0.37;;;;;;;;;;5046094;28;20049;-75
2023/01/06 11:03:20;;;;;;;0.37;0.20;;;;;;;;;;5024949;28;20116;-76
2023/01/06 11:05:46;;;;;;;1.13;0.30;;;;;;;;;;5029647;28;20033;-77
2023/01/06 11:08:14;;;;;;;0.90;0.30;;;;;;;;;;5040147;28;20034;-75
2023/01/06 11:10:43;;;;;;;0.47;0.20;;;;;;;;;;5046975;28;20034;-76
2023/01/06 11:13:30;;;;;;;0.20;0.20;;;;;;;;;;5031611;28;20425;-75
2023/01/06 11:15:57;;;;;;;1.13;0.30;;;;;;;;;;5031189;28;20048;-76
2023/01/06 11:18:28;;;;;;;0.53;0.30;;;;;;;;;;5031245;28;20033;-76
2023/01/06 11:21:02;;;;;;;0.40;0.30;;;;;;;;;;5027983;28;20033;-76
2023/01/06 11:23:30;;;;;;;0.37;0.20;;;;;;;;;;5047155;28;20033;-76
2023/01/06 11:26:05;;;;;;;2.37;0.27;;;;;;;;;;5040281;28;20028;-76
2023/01/06 11:28:31;;;;;;;0.43;0.20;;;;;;;;;;5026337;28;20025;-76
2023/01/06 11:31:13;;;;;;;0.47;0.30;;;;;;;;;;5042647;28;20120;-78
2023/01/06 11:33:48;;;;;;;0.70;0.30;;;;;;;;;;5049030;28;21719;-77
2023/01/06 11:36:17;;;;;;;0.63;0.30;;;;;;;;;;5045969;28;20087;-76
2023/01/06 11:38:48;;;;;;;0.40;0.30;;;;;;;;;;5048929;28;20871;-77
2023/01/06 11:41:20;;;;;;;1.60;0.30;;;;;;;;;;5051224;28;20108;-78
2023/01/06 11:43:46;;;;;;;0.67;0.27;;;;;;;;;;5027763;28;20458;-78
2023/01/06 11:46:13;;;;;;;0.67;0.30;;;;;;;;;;5025552;28;20041;-78
2023/01/06 11:48:46;;;;;;;1.43;0.30;;;;;;;;;;5047809;28;20053;-77
2023/01/06 11:51:13;;;;;;;0.77;0.23;;;;;;;;;;5039188;28;20029;-79
2023/01/06 11:53:39;;;;;;;1.67;0.47;;;;;;;;;;5045440;28;20088;-77
2023/01/06 11:56:07;;;;;;;1.53;0.60;;;;;;;;;;5046620;28;20493;-78
2023/01/06 11:58:52;;;;;;;3.60;0.40;;;;;;;;;;5024502;28;20061;-78
2023/01/06 12:01:27;;;;;;;1.57;0.60;;;;;;;;;;5025770;28;20033;-78
2023/01/06 12:04:00;;;;;;;2.20;0.40;;;;;;;;;;5046657;28;20247;-77
2023/01/06 12:06:30;;;;;;;0.90;0.43;;;;;;;;;;5027187;28;20025;-79
2023/01/06 12:09:00;;;;;;;0.83;0.40;;;;;;;;;;5047642;28;20053;-80
2023/01/06 12:11:26;;;;;;;1.27;0.60;;;;;;;;;;5040844;28;20037;-78
2023/01/06 12:13:55;;;;;;;1.53;0.30;;;;;;;;;;5048248;28;20133;-78
2023/01/06 12:16:41;;;;;;;2.10;0.30;;;;;;;;;;5024849;28;20041;-76
2023/01/06 12:19:27;;;;;;;2.23;0.30;;;;;;;;;;5030314;28;20025;-76
2023/01/06 12:21:55;;;;;;;2.43;0.40;;;;;;;;;;5018275;28;20041;-78
2023/01/06 12:24:21;;;;;;;1.87;0.47;;;;;;;;;;5046767;28;20116;-78
2023/01/06 12:26:48;;;;;;;2.13;1.03;;;;;;;;;;5030250;28;20021;-77
2023/01/06 12:29:17;;;;;;;1.27;0.30;;;;;;;;;;5024304;28;20029;-77
2023/01/06 12:31:43;;;;;;;2.63;0.40;;;;;;;;;;5028766;28;20048;-79
2023/01/06 12:34:12;;;;;;;1.13;0.40;;;;;;;;;;5045608;28;20037;-78
2023/01/06 12:36:41;;;;;;;1.47;0.30;;;;;;;;;;5038513;28;20032;-77
2023/01/06 12:39:27;;;;;;;1.17;0.50;;;;;;;;;;5045377;28;20069;-78
2023/01/06 12:42:07;;;;;;;0.80;0.30;;;;;;;;;;5029245;28;20029;-76
2023/01/06 12:44:39;;;;;;;1.30;0.30;;;;;;;;;;5032395;28;20068;-78
2023/01/06 12:47:12;;;;;;;2.10;0.50;;;;;;;;;;5039141;28;20424;-76
2023/01/06 12:49:57;;;;;;;0.95;0.35;;;;;;;;;;5045556;28;20464;-75
2023/01/06 12:52:43;;;;;;;0.40;0.40;;;;;;;;;;5045212;28;20151;-78
2023/01/06 12:55:15;;;;;;;0.43;0.20;;;;;;;;;;5028470;28;20045;-78
2023/01/06 12:57:44;;;;;;;1.60;0.50;;;;;;;;;;5023561;28;20044;-76
2023/01/06 13:00:10;;;;;;;0.67;0.63;;;;;;;;;;5040318;28;20085;-78
2023/01/06 13:02:36;;;;;;;3.10;0.77;;;;;;;;;;5048724;28;20758;-78
2023/01/06 13:05:11;;;;;;;0.63;0.50;;;;;;;;;;5041710;28;20041;-79
2023/01/06 13:07:49;;;;;;;1.37;0.40;;;;;;;;;;5025788;28;20033;-77
2023/01/06 13:10:32;;;;;;;1.40;0.70;;;;;;;;;;5025539;28;20029;-77
2023/01/06 13:13:17;;;;;;;1.20;0.50;;;;;;;;;;5027720;28;20622;-77
2023/01/06 13:15:44;;;;;;;1.50;0.37;;;;;;;;;;5030808;28;20468;-77
2023/01/06 13:18:20;;;;;;;0.30;0.30;;;;;;;;;;5024965;28;20045;-78
2023/01/06 13:20:50;;;;;;;1.13;0.73;;;;;;;;;;5047388;28;20093;-78
2023/01/06 13:23:22;;;;;;;1.40;0.37;;;;;;;;;;5047819;28;20025;-78
2023/01/06 13:26:04;;;;;;;0.73;0.30;;;;;;;;;;5045885;28;20083;-77
2023/01/06 13:28:36;;;;;;;1.10;0.70;;;;;;;;;;5031051;28;20045;-78
2023/01/06 13:31:22;;;;;;;2.55;0.50;;;;;;;;;;5048073;28;20577;-79
2023/01/06 13:34:00;;;;;;;0.57;0.40;;;;;;;;;;5042751;28;20041;-79
2023/01/06 13:36:38;;;;;;;1.70;0.40;;;;;;;;;;5049037;28;20087;-78
2023/01/06 13:39:07;;;;;;;1.53;0.33;;;;;;;;;;5031792;28;20029;-78
2023/01/06 13:41:35;;;;;;;0.77;0.50;;;;;;;;;;5032864;28;20034;-78
2023/01/06 13:44:02;;;;;;;0.27;0.20;;;;;;;;;;5046658;28;20017;-77
2023/01/06 13:46:29;;;;;;;1.13;0.50;;;;;;;;;;5045148;28;20108;-77
2023/01/06 13:48:57;;;;;;;1.20;0.30;;;;;;;;;;5030773;28;20033;-78
2023/01/06 13:51:26;;;;;;;0.60;0.30;;;;;;;;;;5027568;28;20116;-77
2023/01/06 13:53:53;;;;;;;3.60;0.50;;;;;;;;;;5048019;28;20053;-77
2023/01/06 13:56:22;;;;;;;0.93;0.30;;;;;;;;;;5027116;28;20029;-78
2023/01/06 13:58:50;;;;;;;0.50;0.37;;;;;;;;;;5025732;28;20038;-78
2023/01/06 14:01:19;;;;;;;0.70;0.20;;;;;;;;;;5047474;28;20033;-77
2023/01/06 14:03:46;;;;;;;1.43;0.90;;;;;;;;;;5046989;28;20064;-77
2023/01/06 14:06:32;;;;;;;1.17;0.37;;;;;;;;;;5026910;28;20108;-77
2023/01/06 14:09:00;;;;;;;1.00;0.40;;;;;;;;;;5030252;28;20037;-78
2023/01/06 14:11:30;;;;;;;1.37;0.80;;;;;;;;;;5047331;28;20044;-77
2023/01/06 14:13:58;;;;;;;0.50;0.37;;;;;;;;;;5041027;28;20551;-76
2023/01/06 14:16:44;;;;;;;0.83;0.53;;;;;;;;;;5046975;28;20520;-77
2023/01/06 14:19:20;;;;;;;1.17;0.53;;;;;;;;;;5027532;28;20038;-79
2023/01/06 14:21:48;;;;;;;0.93;0.40;;;;;;;;;;5046467;28;20127;-78
2023/01/06 14:24:27;;;;;;;1.37;0.57;;;;;;;;;;5029134;28;21037;-78
2023/01/06 14:26:57;;;;;;;3.60;0.83;;;;;;;;;;5047568;28;20047;-77
2023/01/06 14:29:41;;;;;;;2.00;0.97;;;;;;;;;;5030294;28;20026;-77
2023/01/06 14:32:30;;;;;;;1.30;0.60;;;;;;;;;;5033702;28;20037;-78
2023/01/06 14:34:59;;;;;;;1.63;1.00;;;;;;;;;;5045444;28;20041;-78
2023/01/06 14:37:42;;;;;;;2.90;0.50;;;;;;;;;;5050435;28;20025;-77
2023/01/06 14:40:17;;;;;;;1.97;0.67;;;;;;;;;;5042225;28;20450;-78
2023/01/06 14:42:45;;;;;;;11.23;1.57;;;;;;;;;;5050129;28;20116;-78
2023/01/06 14:45:17;;;;;;;2.30;1.00;;;;;;;;;;5050414;28;20079;-78
2023/01/06 14:47:48;;;;;;;2.75;0.77;;;;;;;;;;5034110;28;20026;-77
2023/01/06 14:50:19;;;;;;;0.80;0.50;;;;;;;;;;5043629;28;20045;-78
2023/01/06 14:52:48;;;;;;;2.50;0.73;;;;;;;;;;5027598;28;20057;-78